createdAt,value
2017-01-11T04:00:15.264Z,21.39
2017-01-11T04:00:40.846Z,21.44
2017-01-11T04:01:06.398Z,21.51
2017-01-11T04:01:31.969Z,21.46
2017-01-11T04:01:57.598Z,21.44
2017-01-11T04:02:23.259Z,21.46
2017-01-11T04:02:48.912Z,21.5
2017-01-11T04:03:14.448Z,21.46
2017-01-11T04:03:40.039Z,21.46
2017-01-11T04:04:05.601Z,21.42
2017-01-11T04:04:31.250Z,21.41
2017-01-11T04:04:56.801Z,21.42
2017-01-11T04:05:22.394Z,21.39
2017-01-11T04:05:47.999Z,21.39
2017-01-11T04:06:13.672Z,21.44
2017-01-11T04:06:39.822Z,21.39
2017-01-11T04:07:05.405Z,21.41
2017-01-11T04:07:31.221Z,21.45
2017-01-11T04:07:56.782Z,21.44
2017-01-11T04:08:22.359Z,21.46
2017-01-11T04:08:48.454Z,21.48
2017-01-11T04:09:36.385Z,21.45
2017-01-11T04:10:01.952Z,21.39
2017-01-11T04:10:27.533Z,21.45
2017-01-11T04:10:53.140Z,21.38
2017-01-11T04:11:18.711Z,21.44
2017-01-11T04:11:44.275Z,21.44
2017-01-11T04:12:09.846Z,21.44
2017-01-11T04:12:35.492Z,21.42
2017-01-11T04:13:01.081Z,21.46
2017-01-11T04:13:26.659Z,21.45
2017-01-11T04:13:52.250Z,21.42
2017-01-11T04:14:17.820Z,21.34
2017-01-11T04:14:43.397Z,21.46
2017-01-11T04:15:09.090Z,21.48
2017-01-11T04:15:34.693Z,21.45
2017-01-11T04:16:00.254Z,21.41
2017-01-11T04:16:25.818Z,21.48
2017-01-11T04:16:51.493Z,21.41
2017-01-11T04:17:17.037Z,21.44
2017-01-11T04:17:42.606Z,21.39
2017-01-11T04:18:08.188Z,21.39
2017-01-11T04:18:33.756Z,21.46
2017-01-11T04:18:59.354Z,21.5
2017-01-11T04:19:24.900Z,21.41
2017-01-11T04:19:50.474Z,21.45
2017-01-11T04:20:16.079Z,21.45
2017-01-11T04:20:41.699Z,21.53
2017-01-11T04:21:07.255Z,21.48
2017-01-11T04:21:32.799Z,21.51
2017-01-11T04:21:58.455Z,21.48
2017-01-11T04:22:24.042Z,21.44
2017-01-11T04:22:49.614Z,21.46
2017-01-11T04:23:15.178Z,21.45
2017-01-11T04:23:40.754Z,21.51
2017-01-11T04:24:06.318Z,21.54
2017-01-11T04:24:31.905Z,21.5
2017-01-11T04:24:57.454Z,21.53
2017-01-11T04:25:23.021Z,21.5
2017-01-11T04:25:48.577Z,21.53
2017-01-11T04:26:14.163Z,21.5
2017-01-11T04:26:39.708Z,21.59
2017-01-11T04:27:05.277Z,21.53
2017-01-11T04:27:30.845Z,21.59
2017-01-11T04:27:56.403Z,21.51
2017-01-11T04:28:21.960Z,21.53
2017-01-11T04:28:47.509Z,21.57
2017-01-11T04:29:13.083Z,21.63
2017-01-11T04:29:38.644Z,21.67
2017-01-11T04:30:04.215Z,21.66
2017-01-11T04:30:29.789Z,21.61
2017-01-11T04:30:55.348Z,21.64
2017-01-11T04:31:20.894Z,21.59
2017-01-11T04:31:46.632Z,21.64
2017-01-11T04:32:12.197Z,21.63
2017-01-11T04:32:37.770Z,21.57
2017-01-11T04:33:03.375Z,21.61
2017-01-11T04:33:29.054Z,21.63
2017-01-11T04:33:54.618Z,21.59
2017-01-11T04:34:20.236Z,21.6
2017-01-11T04:34:45.805Z,21.66
2017-01-11T04:35:11.368Z,21.56
2017-01-11T04:35:36.943Z,21.59
2017-01-11T04:36:02.610Z,21.59
2017-01-11T04:36:28.184Z,21.56
2017-01-11T04:36:53.737Z,21.57
2017-01-11T04:37:19.393Z,21.63
2017-01-11T04:37:44.943Z,21.6
2017-01-11T04:38:10.503Z,21.64
2017-01-11T04:38:36.066Z,21.66
2017-01-11T04:39:01.798Z,21.56
2017-01-11T04:39:27.366Z,21.51
2017-01-11T04:39:52.932Z,21.64
2017-01-11T04:40:18.605Z,21.6
2017-01-11T04:40:44.182Z,21.71
2017-01-11T04:41:09.735Z,21.69
2017-01-11T04:41:35.385Z,21.64
2017-01-11T04:42:01.005Z,21.72
2017-01-11T04:42:26.564Z,21.67
2017-01-11T04:42:52.201Z,21.72
2017-01-11T04:43:17.804Z,21.69
2017-01-11T04:43:43.376Z,21.69
2017-01-11T04:44:09.014Z,21.69
2017-01-11T04:44:34.654Z,21.71
2017-01-11T04:45:00.212Z,21.63
2017-01-11T04:45:25.761Z,21.69
2017-01-11T04:45:51.414Z,21.72
2017-01-11T04:46:16.985Z,21.66
2017-01-11T04:46:42.569Z,21.67
2017-01-11T04:47:08.146Z,21.59
2017-01-11T04:47:33.724Z,21.66
2017-01-11T04:47:59.293Z,21.69
2017-01-11T04:48:24.849Z,21.67
2017-01-11T04:48:50.410Z,21.63
2017-01-11T04:49:15.962Z,21.64
2017-01-11T04:49:41.525Z,21.66
2017-01-11T04:50:07.104Z,21.67
2017-01-11T04:50:32.773Z,21.67
2017-01-11T04:50:58.379Z,21.63
2017-01-11T04:51:23.934Z,21.69
2017-01-11T04:51:49.507Z,21.66
2017-01-11T04:52:15.091Z,21.66
2017-01-11T04:52:40.660Z,21.61
2017-01-11T04:53:06.231Z,21.69
2017-01-11T04:53:31.831Z,21.66
2017-01-11T04:53:57.395Z,21.69
2017-01-11T04:54:23.041Z,21.67
2017-01-11T04:54:48.652Z,21.75
2017-01-11T04:55:14.247Z,21.67
2017-01-11T04:55:39.795Z,21.74
2017-01-11T04:56:05.352Z,21.74
2017-01-11T04:56:30.937Z,21.64
2017-01-11T04:57:34.149Z,21.69
2017-01-11T04:57:59.717Z,21.63
2017-01-11T04:58:25.361Z,21.66
2017-01-11T04:58:50.941Z,21.67
2017-01-11T04:59:16.522Z,21.72
2017-01-11T04:59:42.300Z,21.69
2017-01-11T05:00:08.017Z,21.67
2017-01-11T05:00:33.573Z,21.66
2017-01-11T05:00:59.149Z,21.69
2017-01-11T05:01:24.724Z,21.66
2017-01-11T05:01:50.353Z,21.74
2017-01-11T05:02:15.925Z,21.67
2017-01-11T05:02:41.484Z,21.67
2017-01-11T05:03:07.046Z,21.69
2017-01-11T05:03:32.615Z,21.6
2017-01-11T05:03:58.172Z,21.67
2017-01-11T05:04:23.710Z,21.69
2017-01-11T05:04:49.257Z,21.64
2017-01-11T05:05:14.861Z,21.64
2017-01-11T05:05:40.534Z,21.67
2017-01-11T05:06:06.151Z,21.66
2017-01-11T05:06:31.699Z,21.63
2017-01-11T05:06:57.291Z,21.69
2017-01-11T05:07:22.867Z,21.71
2017-01-11T05:07:48.416Z,21.74
2017-01-11T05:08:14.031Z,21.71
2017-01-11T05:08:39.572Z,21.75
2017-01-11T05:09:05.142Z,21.67
2017-01-11T05:09:30.703Z,21.74
2017-01-11T05:09:56.286Z,21.79
2017-01-11T05:10:21.860Z,21.74
2017-01-11T05:10:47.433Z,21.74
2017-01-11T05:11:12.972Z,21.72
2017-01-11T05:11:38.536Z,21.66
2017-01-11T05:12:04.126Z,21.72
2017-01-11T05:12:29.651Z,21.74
2017-01-11T05:12:55.201Z,21.64
2017-01-11T05:13:20.873Z,21.69
2017-01-11T05:13:46.433Z,21.71
2017-01-11T05:14:12.109Z,21.78
2017-01-11T05:14:37.724Z,21.71
2017-01-11T05:15:03.295Z,21.66
2017-01-11T05:15:28.862Z,21.76
2017-01-11T05:15:54.515Z,21.66
2017-01-11T05:16:20.075Z,21.76
2017-01-11T05:16:45.652Z,21.75
2017-01-11T05:17:11.324Z,21.66
2017-01-11T05:17:36.956Z,21.66
2017-01-11T05:18:02.534Z,21.72
2017-01-11T05:18:28.084Z,21.79
2017-01-11T05:18:53.686Z,21.78
2017-01-11T05:19:19.308Z,21.66
2017-01-11T05:19:44.886Z,21.75
2017-01-11T05:20:10.502Z,21.74
2017-01-11T05:20:36.086Z,21.79
2017-01-11T05:21:01.644Z,21.74
2017-01-11T05:21:27.226Z,21.75
2017-01-11T05:21:52.801Z,21.74
2017-01-11T05:22:18.378Z,21.75
2017-01-11T05:22:43.946Z,21.71
2017-01-11T05:23:09.514Z,21.69
2017-01-11T05:23:35.134Z,21.66
2017-01-11T05:24:00.706Z,21.75
2017-01-11T05:24:26.276Z,21.72
2017-01-11T05:24:51.943Z,21.74
2017-01-11T05:25:17.522Z,21.71
2017-01-11T05:25:43.105Z,21.74
2017-01-11T05:26:08.662Z,21.67
2017-01-11T05:26:34.326Z,21.67
2017-01-11T05:26:59.884Z,21.81
2017-01-11T05:27:25.455Z,21.69
2017-01-11T05:27:51.011Z,21.72
2017-01-11T05:28:16.647Z,21.76
2017-01-11T05:28:42.250Z,21.74
2017-01-11T05:29:07.827Z,21.71
2017-01-11T05:29:33.465Z,21.67
2017-01-11T05:29:59.035Z,21.72
2017-01-11T05:30:24.587Z,21.75
2017-01-11T05:30:50.158Z,21.71
2017-01-11T05:31:15.726Z,21.72
2017-01-11T05:31:41.292Z,21.72
2017-01-11T05:32:06.916Z,21.67
2017-01-11T05:32:32.479Z,21.76
2017-01-11T05:32:58.122Z,21.71
2017-01-11T05:33:23.682Z,21.71
2017-01-11T05:33:49.253Z,21.69
2017-01-11T05:34:14.812Z,21.66
2017-01-11T05:34:40.375Z,21.72
2017-01-11T05:35:05.947Z,21.72
2017-01-11T05:35:31.565Z,21.78
2017-01-11T05:35:57.164Z,21.71
2017-01-11T05:36:22.791Z,21.74
2017-01-11T05:36:48.373Z,21.66
2017-01-11T05:37:13.953Z,21.71
2017-01-11T05:37:39.582Z,21.69
2017-01-11T05:38:05.143Z,21.71
2017-01-11T05:38:30.709Z,21.76
2017-01-11T05:38:56.280Z,21.71
2017-01-11T05:39:21.875Z,21.71
2017-01-11T05:39:47.475Z,21.69
2017-01-11T05:40:13.032Z,21.75
2017-01-11T05:40:38.595Z,21.78
2017-01-11T05:41:04.286Z,21.66
2017-01-11T05:41:29.856Z,21.78
2017-01-11T05:41:55.416Z,21.71
2017-01-11T05:42:20.967Z,21.67
2017-01-11T05:42:46.713Z,21.71
2017-01-11T05:43:12.283Z,21.67
2017-01-11T05:43:37.953Z,21.66
2017-01-11T05:44:03.555Z,21.69
2017-01-11T05:44:29.147Z,21.75
2017-01-11T05:44:54.705Z,21.74
2017-01-11T05:45:20.278Z,21.71
2017-01-11T05:45:45.818Z,21.75
2017-01-11T05:46:11.389Z,21.71
2017-01-11T05:46:36.974Z,21.69
2017-01-11T05:47:02.655Z,21.72
2017-01-11T05:47:28.219Z,21.72
2017-01-11T05:47:53.821Z,21.78
2017-01-11T05:48:19.430Z,21.74
2017-01-11T05:48:44.996Z,21.74
2017-01-11T05:49:10.556Z,21.76
2017-01-11T05:49:36.180Z,21.71
2017-01-11T05:50:01.767Z,21.71
2017-01-11T05:50:27.323Z,21.71
2017-01-11T05:50:52.892Z,21.71
2017-01-11T05:51:18.463Z,21.72
2017-01-11T05:51:44.018Z,21.74
2017-01-11T05:52:09.672Z,21.66
2017-01-11T05:52:35.236Z,21.74
2017-01-11T05:53:00.796Z,21.67
2017-01-11T05:53:26.502Z,21.69
2017-01-11T05:53:52.080Z,21.66
2017-01-11T05:54:17.642Z,21.72
2017-01-11T05:54:43.264Z,21.67
2017-01-11T05:55:08.931Z,21.72
2017-01-11T05:55:34.492Z,21.74
2017-01-11T05:56:00.055Z,21.71
2017-01-11T05:56:25.652Z,21.71
2017-01-11T05:56:51.231Z,21.67
2017-01-11T05:57:16.794Z,21.66
2017-01-11T05:57:42.436Z,21.66
2017-01-11T05:58:08.013Z,21.71
2017-01-11T05:58:33.579Z,21.75
2017-01-11T05:58:59.233Z,21.75
2017-01-11T05:59:24.786Z,21.69
2017-01-11T05:59:50.346Z,21.75
2017-01-11T06:00:15.901Z,21.75
2017-01-11T06:00:41.496Z,21.76
2017-01-11T06:01:07.103Z,21.79
2017-01-11T06:01:32.757Z,21.79
2017-01-11T06:01:58.343Z,21.76
2017-01-11T06:02:23.905Z,21.83
2017-01-11T06:02:49.492Z,21.83
2017-01-11T06:03:15.059Z,21.75
2017-01-11T06:03:40.637Z,21.81
2017-01-11T06:04:06.304Z,21.75
2017-01-11T06:04:31.875Z,21.81
2017-01-11T06:04:57.455Z,21.79
2017-01-11T06:05:23.004Z,21.83
2017-01-11T06:05:48.683Z,21.79
2017-01-11T06:06:14.264Z,21.76
2017-01-11T06:06:39.829Z,21.78
2017-01-11T06:07:05.469Z,21.76
2017-01-11T06:07:31.087Z,21.81
2017-01-11T06:07:56.655Z,21.81
2017-01-11T06:08:22.286Z,21.79
2017-01-11T06:08:47.864Z,21.78
2017-01-11T06:09:13.430Z,21.76
2017-01-11T06:09:39.062Z,21.83
2017-01-11T06:10:04.694Z,21.82
2017-01-11T06:10:30.245Z,21.79
2017-01-11T06:10:55.918Z,21.82
2017-01-11T06:11:22.379Z,21.85
2017-01-11T06:11:47.992Z,21.83
2017-01-11T06:12:13.584Z,21.81
2017-01-11T06:12:39.222Z,21.85
2017-01-11T06:13:04.803Z,21.81
2017-01-11T06:13:30.491Z,21.82
2017-01-11T06:13:56.066Z,21.9
2017-01-11T06:14:21.616Z,21.82
2017-01-11T06:14:47.190Z,21.85
2017-01-11T06:15:12.912Z,21.83
2017-01-11T06:15:38.700Z,21.82
2017-01-11T06:16:04.284Z,21.82
2017-01-11T06:16:29.841Z,21.81
2017-01-11T06:16:55.404Z,21.88
2017-01-11T06:17:20.980Z,21.81
2017-01-11T06:17:46.571Z,21.85
2017-01-11T06:18:12.131Z,21.82
2017-01-11T06:18:37.694Z,21.9
2017-01-11T06:19:03.302Z,21.82
2017-01-11T06:19:28.949Z,21.81
2017-01-11T06:19:54.514Z,21.82
2017-01-11T06:20:20.059Z,21.85
2017-01-11T06:20:45.624Z,21.83
2017-01-11T06:21:11.181Z,21.85
2017-01-11T06:21:36.771Z,21.85
2017-01-11T06:22:02.479Z,21.79
2017-01-11T06:22:28.050Z,21.66
2017-01-11T06:22:53.612Z,21.74
2017-01-11T06:23:19.227Z,21.6
2017-01-11T06:23:44.910Z,21.61
2017-01-11T06:24:10.453Z,21.57
2017-01-11T06:24:36.023Z,21.61
2017-01-11T06:25:01.603Z,21.63
2017-01-11T06:25:27.178Z,21.6
2017-01-11T06:25:52.734Z,21.5
2017-01-11T06:26:18.287Z,21.48
2017-01-11T06:26:43.890Z,21.42
2017-01-11T06:27:09.511Z,21.39
2017-01-11T06:27:35.147Z,21.39
2017-01-11T06:28:00.654Z,21.32
2017-01-11T06:28:26.329Z,21.42
2017-01-11T06:28:51.891Z,21.42
2017-01-11T06:29:17.471Z,21.46
2017-01-11T06:29:43.031Z,21.48
2017-01-11T06:30:08.743Z,21.51
2017-01-11T06:30:34.313Z,21.5
2017-01-11T06:30:59.867Z,21.5
2017-01-11T06:31:25.513Z,21.5
2017-01-11T06:31:51.124Z,21.53
2017-01-11T06:32:16.685Z,21.51
2017-01-11T06:32:42.357Z,21.54
2017-01-11T06:33:07.911Z,21.53
2017-01-11T06:33:33.460Z,21.51
2017-01-11T06:34:42.531Z,21.63
2017-01-11T06:35:08.145Z,21.66
2017-01-11T06:35:33.689Z,21.6
2017-01-11T06:35:59.433Z,21.59
2017-01-11T06:36:24.988Z,21.59
2017-01-11T06:36:50.559Z,21.63
2017-01-11T06:37:16.123Z,21.53
2017-01-11T06:37:41.703Z,21.59
2017-01-11T06:38:07.260Z,21.63
2017-01-11T06:38:32.900Z,21.59
2017-01-11T06:38:58.470Z,21.57
2017-01-11T06:39:24.133Z,21.57
2017-01-11T06:39:49.684Z,21.59
2017-01-11T06:40:15.234Z,21.63
2017-01-11T06:40:40.823Z,21.53
2017-01-11T06:41:06.392Z,21.59
2017-01-11T06:41:31.960Z,21.59
2017-01-11T06:41:57.525Z,21.72
2017-01-11T06:42:23.111Z,21.69
2017-01-11T06:42:48.668Z,21.66
2017-01-11T06:43:14.239Z,21.59
2017-01-11T06:43:39.882Z,21.66
2017-01-11T06:44:05.436Z,21.67
2017-01-11T06:44:31.032Z,21.71
2017-01-11T06:44:56.613Z,21.69
2017-01-11T06:45:22.169Z,21.67
2017-01-11T06:45:47.719Z,21.64
2017-01-11T06:46:13.282Z,21.67
2017-01-11T06:46:38.911Z,21.72
2017-01-11T06:47:04.518Z,21.66
2017-01-11T06:47:30.097Z,21.63
2017-01-11T06:47:55.654Z,21.63
2017-01-11T06:48:21.223Z,21.67
2017-01-11T06:48:46.912Z,21.66
2017-01-11T06:49:12.471Z,21.64
2017-01-11T06:49:38.028Z,21.64
2017-01-11T06:50:03.638Z,21.67
2017-01-11T06:50:29.199Z,21.66
2017-01-11T06:50:54.767Z,21.66
2017-01-11T06:51:47.924Z,21.67
2017-01-11T06:52:13.533Z,21.67
2017-01-11T06:52:39.117Z,21.63
2017-01-11T06:53:04.687Z,21.71
2017-01-11T06:53:30.269Z,21.71
2017-01-11T06:53:55.831Z,21.64
2017-01-11T06:54:21.394Z,21.75
2017-01-11T06:54:46.952Z,21.74
2017-01-11T06:55:12.711Z,21.75
2017-01-11T06:55:38.300Z,21.72
2017-01-11T06:56:03.922Z,21.71
2017-01-11T06:56:29.482Z,21.66
2017-01-11T06:56:55.040Z,21.74
2017-01-11T06:57:20.599Z,21.71
2017-01-11T06:57:46.197Z,21.72
2017-01-11T06:58:11.827Z,21.71
2017-01-11T06:58:37.427Z,21.67
2017-01-11T06:59:02.999Z,21.67
2017-01-11T06:59:28.574Z,21.69
2017-01-11T06:59:54.163Z,21.67
2017-01-11T07:00:52.290Z,21.66
2017-01-11T07:01:17.912Z,21.64
2017-01-11T07:01:43.459Z,21.72
2017-01-11T07:02:09.121Z,21.75
2017-01-11T07:02:34.683Z,21.72
2017-01-11T07:03:00.261Z,21.67
2017-01-11T07:03:25.873Z,21.71
2017-01-11T07:03:51.447Z,21.67
2017-01-11T07:04:18.015Z,21.71
2017-01-11T07:04:43.569Z,21.74
2017-01-11T07:05:09.235Z,21.75
2017-01-11T07:05:34.789Z,21.71
2017-01-11T07:06:00.379Z,21.74
2017-01-11T07:06:25.954Z,21.78
2017-01-11T07:06:51.511Z,21.75
2017-01-11T07:07:17.102Z,21.74
2017-01-11T07:07:42.690Z,21.66
2017-01-11T07:08:08.259Z,21.71
2017-01-11T07:08:33.805Z,21.69
2017-01-11T07:08:59.461Z,21.72
2017-01-11T07:09:25.089Z,21.66
2017-01-11T07:09:50.650Z,21.66
2017-01-11T07:10:16.282Z,21.74
2017-01-11T07:10:41.847Z,21.75
2017-01-11T07:11:07.416Z,21.66
2017-01-11T07:11:33.025Z,21.74
2017-01-11T07:11:58.590Z,21.72
2017-01-11T07:12:49.697Z,21.69
2017-01-11T07:13:15.326Z,21.67
2017-01-11T07:13:40.883Z,21.69
2017-01-11T07:14:06.464Z,21.74
2017-01-11T07:14:32.035Z,21.75
2017-01-11T07:14:57.592Z,21.67
2017-01-11T07:15:23.194Z,21.72
2017-01-11T07:15:48.804Z,21.67
2017-01-11T07:16:14.374Z,21.66
2017-01-11T07:16:40.060Z,21.72
2017-01-11T07:17:05.673Z,21.74
2017-01-11T07:17:31.291Z,21.69
2017-01-11T07:17:56.824Z,21.76
2017-01-11T07:18:22.449Z,21.75
2017-01-11T07:18:48.027Z,21.71
2017-01-11T07:19:13.618Z,21.67
2017-01-11T07:19:39.157Z,21.69
2017-01-11T07:20:04.754Z,21.67
2017-01-11T07:20:30.317Z,21.74
2017-01-11T07:20:55.871Z,21.71
2017-01-11T07:21:21.568Z,21.69
2017-01-11T07:21:47.117Z,21.67
2017-01-11T07:22:12.660Z,21.74
2017-01-11T07:22:38.208Z,21.69
2017-01-11T07:23:03.768Z,21.75
2017-01-11T07:23:29.307Z,21.69
2017-01-11T07:23:54.958Z,21.76
2017-01-11T07:24:20.497Z,21.74
2017-01-11T07:24:46.100Z,21.75
2017-01-11T07:25:11.764Z,21.72
2017-01-11T07:25:37.327Z,21.75
2017-01-11T07:26:02.891Z,21.72
2017-01-11T07:26:28.534Z,21.72
2017-01-11T07:26:54.111Z,21.74
2017-01-11T07:27:19.706Z,21.74
2017-01-11T07:27:45.284Z,21.69
2017-01-11T07:28:10.914Z,21.72
2017-01-11T07:28:36.569Z,21.71
2017-01-11T07:29:02.283Z,21.69
2017-01-11T07:29:27.882Z,21.76
2017-01-11T07:29:53.421Z,21.64
2017-01-11T07:30:19.015Z,21.69
2017-01-11T07:30:44.591Z,21.71
2017-01-11T07:31:10.139Z,21.71
2017-01-11T07:31:35.702Z,21.74
2017-01-11T07:32:01.372Z,21.67
2017-01-11T07:32:26.947Z,21.63
2017-01-11T07:32:52.505Z,21.74
2017-01-11T07:33:18.075Z,21.6
2017-01-11T07:33:43.654Z,21.64
2017-01-11T07:34:09.210Z,21.69
2017-01-11T07:34:34.822Z,21.64
2017-01-11T07:35:00.386Z,21.71
2017-01-11T07:35:25.948Z,21.63
2017-01-11T07:35:51.495Z,21.64
2017-01-11T07:36:17.060Z,21.66
2017-01-11T07:36:42.636Z,21.71
2017-01-11T07:37:08.212Z,21.63
2017-01-11T07:37:33.787Z,21.66
2017-01-11T07:37:59.385Z,21.63
2017-01-11T07:38:24.971Z,21.69
2017-01-11T07:38:50.535Z,21.63
2017-01-11T07:39:16.110Z,21.69
2017-01-11T07:39:41.695Z,21.75
2017-01-11T07:40:07.282Z,21.71
2017-01-11T07:40:32.959Z,21.66
2017-01-11T07:40:58.563Z,21.67
2017-01-11T07:41:24.117Z,21.69
2017-01-11T07:41:49.694Z,21.67
2017-01-11T07:42:15.398Z,21.64
2017-01-11T07:42:40.980Z,21.71
2017-01-11T07:43:06.581Z,21.67
2017-01-11T07:43:32.207Z,21.63
2017-01-11T07:43:57.809Z,21.71
2017-01-11T07:44:23.398Z,21.74
2017-01-11T07:44:49.000Z,21.67
2017-01-11T07:45:14.579Z,21.71
2017-01-11T07:45:40.146Z,21.69
2017-01-11T07:46:05.695Z,21.66
2017-01-11T07:46:31.255Z,21.72
2017-01-11T07:46:56.873Z,21.75
2017-01-11T07:47:22.430Z,21.69
2017-01-11T07:47:47.980Z,21.74
2017-01-11T07:48:13.553Z,21.78
2017-01-11T07:48:39.114Z,21.67
2017-01-11T07:49:04.787Z,21.81
2017-01-11T07:49:30.346Z,21.75
2017-01-11T07:49:55.920Z,21.71
2017-01-11T07:50:21.511Z,21.66
2017-01-11T07:50:47.191Z,21.75
2017-01-11T07:51:12.934Z,21.74
2017-01-11T07:51:38.502Z,21.71
2017-01-11T07:52:04.089Z,21.72
2017-01-11T07:52:29.810Z,21.67
2017-01-11T07:52:55.369Z,21.66
2017-01-11T07:53:20.978Z,21.69
2017-01-11T07:53:46.669Z,21.72
2017-01-11T07:54:12.228Z,21.74
2017-01-11T07:54:37.808Z,21.69
2017-01-11T07:55:35.970Z,21.74
2017-01-11T07:56:01.535Z,21.74
2017-01-11T07:56:27.118Z,21.72
2017-01-11T07:56:52.677Z,21.74
2017-01-11T07:57:18.228Z,21.76
2017-01-11T07:57:43.893Z,21.69
2017-01-11T07:58:09.460Z,21.72
2017-01-11T07:58:35.044Z,21.75
2017-01-11T07:59:00.637Z,21.71
2017-01-11T07:59:26.196Z,21.74
2017-01-11T07:59:51.778Z,21.71
2017-01-11T08:00:17.373Z,21.82
2017-01-11T08:00:42.951Z,21.71
2017-01-11T08:01:08.511Z,21.76
2017-01-11T08:01:34.066Z,21.75
2017-01-11T08:01:59.640Z,21.81
2017-01-11T08:02:25.191Z,21.75
2017-01-11T08:02:50.826Z,21.72
2017-01-11T08:03:16.390Z,21.75
2017-01-11T08:03:41.987Z,21.66
2017-01-11T08:04:07.532Z,21.71
2017-01-11T08:04:33.081Z,21.79
2017-01-11T08:04:58.647Z,21.75
2017-01-11T08:05:24.196Z,21.71
2017-01-11T08:05:49.747Z,21.76
2017-01-11T08:06:15.342Z,21.78
2017-01-11T08:06:40.952Z,21.72
2017-01-11T08:07:06.514Z,21.76
2017-01-11T08:07:32.660Z,21.67
2017-01-11T08:07:58.210Z,21.74
2017-01-11T08:08:23.768Z,21.71
2017-01-11T08:08:49.478Z,21.71
2017-01-11T08:09:15.063Z,21.72
2017-01-11T08:09:40.609Z,21.71
2017-01-11T08:10:06.190Z,21.72
2017-01-11T08:10:31.757Z,21.75
2017-01-11T08:10:57.321Z,21.67
2017-01-11T08:11:22.871Z,21.72
2017-01-11T08:11:48.439Z,21.71
2017-01-11T08:12:14.079Z,21.74
2017-01-11T08:12:39.645Z,21.82
2017-01-11T08:13:05.229Z,21.71
2017-01-11T08:13:30.789Z,21.71
2017-01-11T08:13:56.391Z,21.78
2017-01-11T08:14:21.990Z,21.76
2017-01-11T08:14:47.564Z,21.66
2017-01-11T08:15:13.144Z,21.75
2017-01-11T08:15:38.720Z,21.74
2017-01-11T08:16:04.281Z,21.67
2017-01-11T08:16:29.823Z,21.66
2017-01-11T08:16:55.388Z,21.67
2017-01-11T08:17:20.957Z,21.75
2017-01-11T08:17:46.649Z,21.72
2017-01-11T08:18:12.220Z,21.74
2017-01-11T08:18:37.775Z,21.69
2017-01-11T08:19:03.424Z,21.69
2017-01-11T08:19:29.000Z,21.72
2017-01-11T08:19:54.577Z,21.71
2017-01-11T08:20:20.162Z,21.72
2017-01-11T08:20:45.877Z,21.72
2017-01-11T08:21:11.447Z,21.69
2017-01-11T08:21:37.023Z,21.66
2017-01-11T08:22:02.560Z,21.71
2017-01-11T08:22:28.117Z,21.75
2017-01-11T08:22:53.679Z,21.78
2017-01-11T08:23:19.231Z,21.66
2017-01-11T08:23:44.794Z,21.66
2017-01-11T08:24:10.417Z,21.72
2017-01-11T08:24:35.981Z,21.74
2017-01-11T08:25:01.535Z,21.75
2017-01-11T08:25:27.129Z,21.71
2017-01-11T08:25:53.338Z,21.66
2017-01-11T08:26:18.892Z,21.69
2017-01-11T08:26:44.562Z,21.66
2017-01-11T08:27:10.134Z,21.74
2017-01-11T08:27:35.686Z,21.71
2017-01-11T08:28:01.296Z,21.78
2017-01-11T08:28:26.873Z,21.74
2017-01-11T08:28:52.427Z,21.75
2017-01-11T08:29:17.999Z,21.66
2017-01-11T08:29:43.554Z,21.72
2017-01-11T08:30:09.128Z,21.69
2017-01-11T08:31:02.150Z,21.67
2017-01-11T08:31:28.794Z,21.66
2017-01-11T08:33:43.215Z,21.76
2017-01-11T08:34:08.775Z,21.71
2017-01-11T08:34:34.319Z,21.72
2017-01-11T08:34:59.857Z,21.69
2017-01-11T08:35:25.389Z,21.69
2017-01-11T08:35:50.927Z,21.71
2017-01-11T08:36:16.528Z,21.72
2017-01-11T08:36:42.072Z,21.71
2017-01-11T08:37:07.612Z,21.75
2017-01-11T08:37:33.177Z,21.75
2017-01-11T08:37:58.711Z,21.72
2017-01-11T08:38:24.267Z,21.69
2017-01-11T08:38:49.903Z,21.66
2017-01-11T08:39:15.489Z,21.71
2017-01-11T08:39:41.053Z,21.78
2017-01-11T08:40:06.638Z,21.72
2017-01-11T08:40:32.196Z,21.74
2017-01-11T08:40:57.767Z,21.69
2017-01-11T08:41:23.384Z,21.71
2017-01-11T08:41:49.020Z,21.66
2017-01-11T08:42:14.580Z,21.74
2017-01-11T08:42:40.146Z,21.66
2017-01-11T08:43:05.712Z,21.74
2017-01-11T08:43:31.282Z,21.75
2017-01-11T08:43:56.878Z,21.75
2017-01-11T08:44:22.425Z,21.71
2017-01-11T08:44:47.985Z,21.78
2017-01-11T08:45:13.598Z,21.61
2017-01-11T08:45:39.167Z,21.66
2017-01-11T08:46:04.713Z,21.71
2017-01-11T08:46:30.302Z,21.71
2017-01-11T08:47:28.385Z,21.75
2017-01-11T08:47:54.603Z,21.74
2017-01-11T08:48:19.513Z,21.74
2017-01-11T08:48:45.061Z,21.72
2017-01-11T08:49:10.623Z,21.71
2017-01-11T08:49:37.183Z,21.74
2017-01-11T08:50:02.849Z,21.71
2017-01-11T08:50:28.474Z,21.72
2017-01-11T08:50:54.052Z,21.67
2017-01-11T08:51:19.608Z,21.71
2017-01-11T08:51:45.192Z,21.72
2017-01-11T08:52:10.804Z,21.69
2017-01-11T08:52:36.369Z,21.72
2017-01-11T08:53:01.927Z,21.74
2017-01-11T08:53:27.604Z,21.71
2017-01-11T08:53:53.175Z,21.76
2017-01-11T08:54:18.745Z,21.75
2017-01-11T08:54:44.296Z,21.71
2017-01-11T08:55:09.855Z,21.74
2017-01-11T08:55:35.459Z,21.67
2017-01-11T08:56:01.010Z,21.69
2017-01-11T08:56:26.681Z,21.75
2017-01-11T08:56:52.245Z,21.69
2017-01-11T08:57:17.864Z,21.76
2017-01-11T08:57:43.480Z,21.67
2017-01-11T08:58:08.988Z,21.67
2017-01-11T08:58:34.650Z,21.71
2017-01-11T08:59:00.210Z,21.69
2017-01-11T08:59:25.791Z,21.78
2017-01-11T08:59:51.342Z,21.71
2017-01-11T09:00:16.908Z,21.79
2017-01-11T09:00:42.462Z,21.71
2017-01-11T09:01:08.007Z,21.66
2017-01-11T09:01:33.568Z,21.72
2017-01-11T09:01:59.227Z,21.63
2017-01-11T09:02:24.953Z,21.66
2017-01-11T09:02:50.623Z,21.72
2017-01-11T09:03:16.196Z,21.67
2017-01-11T09:03:42.605Z,21.75
2017-01-11T09:04:07.354Z,21.74
2017-01-11T09:04:32.924Z,21.75
2017-01-11T09:04:58.490Z,21.71
2017-01-11T09:05:24.057Z,21.72
2017-01-11T09:05:49.614Z,21.72
2017-01-11T09:06:15.182Z,21.71
2017-01-11T09:06:40.833Z,21.72
2017-01-11T09:07:06.411Z,21.67
2017-01-11T09:07:31.984Z,21.75
2017-01-11T09:07:57.571Z,21.71
2017-01-11T09:08:23.142Z,21.75
2017-01-11T09:08:48.707Z,21.67
2017-01-11T09:09:14.430Z,21.71
2017-01-11T09:09:39.988Z,21.63
2017-01-11T09:10:05.556Z,21.81
2017-01-11T09:10:31.281Z,21.69
2017-01-11T09:10:56.883Z,21.66
2017-01-11T09:11:22.466Z,21.72
2017-01-11T09:11:48.050Z,21.72
2017-01-11T09:12:13.614Z,21.67
2017-01-11T09:12:39.169Z,21.67
2017-01-11T09:13:04.720Z,21.71
2017-01-11T09:13:30.292Z,21.74
2017-01-11T09:13:55.835Z,21.76
2017-01-11T09:14:21.456Z,21.72
2017-01-11T09:14:47.004Z,21.69
2017-01-11T09:15:12.574Z,21.72
2017-01-11T09:15:38.158Z,21.76
2017-01-11T09:16:03.842Z,21.75
2017-01-11T09:16:29.429Z,21.78
2017-01-11T09:16:55.068Z,21.72
2017-01-11T09:17:20.612Z,21.71
2017-01-11T09:17:46.177Z,21.66
2017-01-11T09:18:11.738Z,21.71
2017-01-11T09:18:37.329Z,21.69
2017-01-11T09:19:03.006Z,21.69
2017-01-11T09:19:28.566Z,21.78
2017-01-11T09:19:54.190Z,21.78
2017-01-11T09:20:19.729Z,21.71
2017-01-11T09:20:45.270Z,21.75
2017-01-11T09:21:48.471Z,21.75
2017-01-11T09:22:14.016Z,21.71
2017-01-11T09:22:39.609Z,21.71
2017-01-11T09:23:05.209Z,21.75
2017-01-11T09:23:30.773Z,21.81
2017-01-11T09:23:57.163Z,21.66
2017-01-11T09:24:21.914Z,21.76
2017-01-11T09:24:47.582Z,21.74
2017-01-11T09:25:13.171Z,21.71
2017-01-11T09:25:38.736Z,21.78
2017-01-11T09:26:04.390Z,21.74
2017-01-11T09:26:29.956Z,21.76
2017-01-11T09:26:55.516Z,21.76
2017-01-11T09:27:21.085Z,21.76
2017-01-11T09:27:46.766Z,21.74
2017-01-11T09:28:12.318Z,21.67
2017-01-11T09:28:37.880Z,21.71
2017-01-11T09:29:03.545Z,21.74
2017-01-11T09:29:29.184Z,21.78
2017-01-11T09:29:54.739Z,21.74
2017-01-11T09:30:20.286Z,21.71
2017-01-11T09:30:45.861Z,21.71
2017-01-11T09:31:11.412Z,21.74
2017-01-11T09:31:36.972Z,21.78
2017-01-11T09:32:02.538Z,21.76
2017-01-11T09:32:28.098Z,21.74
2017-01-11T09:32:53.747Z,21.76
2017-01-11T09:33:19.296Z,21.83
2017-01-11T09:33:44.850Z,21.74
2017-01-11T09:34:10.406Z,21.78
2017-01-11T09:34:36.011Z,21.79
2017-01-11T09:35:01.581Z,21.78
2017-01-11T09:35:27.151Z,21.79
2017-01-11T09:35:52.715Z,21.75
2017-01-11T09:36:18.360Z,21.78
2017-01-11T09:36:43.947Z,21.82
2017-01-11T09:37:09.516Z,21.74